sensor_id;sensor_type;location;lat;lon;timestamp;temperature;humidity
51305;HTU21D;37392;50.964;6.952;2023-07-13T00:01:50;16.59;71.68
51305;HTU21D;37392;50.964;6.952;2023-07-13T00:04:17;16.59;72.24
51305;HTU21D;37392;50.964;6.952;2023-07-13T00:06:46;16.59;72.14
51305;HTU21D;37392;50.964;6.952;2023-07-13T00:09:16;16.51;72.03
51305;HTU21D;37392;50.964;6.952;2023-07-13T00:11:43;16.40;72.36
51305;HTU21D;37392;50.964;6.952;2023-07-13T00:14:10;16.33;72.74
51305;HTU21D;37392;50.964;6.952;2023-07-13T00:16:38;16.34;73.32
51305;HTU21D;37392;50.964;6.952;2023-07-13T00:19:09;16.33;73.61
51305;HTU21D;37392;50.964;6.952;2023-07-13T00:21:37;16.35;73.49
51305;HTU21D;37392;50.964;6.952;2023-07-13T00:24:03;16.42;73.34
51305;HTU21D;37392;50.964;6.952;2023-07-13T00:26:29;16.48;73.33
51305;HTU21D;37392;50.964;6.952;2023-07-13T00:28:54;16.56;73.01
51305;HTU21D;37392;50.964;6.952;2023-07-13T00:31:20;16.62;72.91
51305;HTU21D;37392;50.964;6.952;2023-07-13T00:33:46;16.70;72.98
51305;HTU21D;37392;50.964;6.952;2023-07-13T00:36:12;16.78;72.83
51305;HTU21D;37392;50.964;6.952;2023-07-13T00:38:38;16.79;72.67
51305;HTU21D;37392;50.964;6.952;2023-07-13T00:41:04;16.74;72.81
51305;HTU21D;37392;50.964;6.952;2023-07-13T00:43:30;16.66;73.04
51305;HTU21D;37392;50.964;6.952;2023-07-13T00:48:26;16.54;73.80
51305;HTU21D;37392;50.964;6.952;2023-07-13T00:50:58;16.39;73.77
51305;HTU21D;37392;50.964;6.952;2023-07-13T00:53:27;16.27;74.13
51305;HTU21D;37392;50.964;6.952;2023-07-13T00:55:55;16.21;74.48
51305;HTU21D;37392;50.964;6.952;2023-07-13T00:58:22;16.15;74.71
51305;HTU21D;37392;50.964;6.952;2023-07-13T01:00:50;16.12;75.22
51305;HTU21D;37392;50.964;6.952;2023-07-13T01:03:16;16.11;75.42
51305;HTU21D;37392;50.964;6.952;2023-07-13T01:05:43;16.15;75.27
51305;HTU21D;37392;50.964;6.952;2023-07-13T01:08:08;16.10;75.27
51305;HTU21D;37392;50.964;6.952;2023-07-13T01:10:34;16.04;75.83
51305;HTU21D;37392;50.964;6.952;2023-07-13T01:13:05;15.97;75.86
51305;HTU21D;37392;50.964;6.952;2023-07-13T01:15:44;15.95;76.23
51305;HTU21D;37392;50.964;6.952;2023-07-13T01:18:15;15.82;76.52
51305;HTU21D;37392;50.964;6.952;2023-07-13T01:20:56;15.71;76.79
51305;HTU21D;37392;50.964;6.952;2023-07-13T01:23:26;15.68;77.18
51305;HTU21D;37392;50.964;6.952;2023-07-13T01:25:52;15.60;77.31
51305;HTU21D;37392;50.964;6.952;2023-07-13T01:28:19;15.53;77.65
51305;HTU21D;37392;50.964;6.952;2023-07-13T01:30:45;15.46;78.21
51305;HTU21D;37392;50.964;6.952;2023-07-13T01:33:16;15.39;78.56
51305;HTU21D;37392;50.964;6.952;2023-07-13T01:35:46;15.37;78.75
51305;HTU21D;37392;50.964;6.952;2023-07-13T01:38:18;15.30;78.90
51305;HTU21D;37392;50.964;6.952;2023-07-13T01:40:45;15.26;79.11
51305;HTU21D;37392;50.964;6.952;2023-07-13T01:43:11;15.21;79.21
51305;HTU21D;37392;50.964;6.952;2023-07-13T01:45:37;15.16;79.63
51305;HTU21D;37392;50.964;6.952;2023-07-13T01:48:02;15.18;79.78
51305;HTU21D;37392;50.964;6.952;2023-07-13T01:50:28;15.17;80.04
51305;HTU21D;37392;50.964;6.952;2023-07-13T01:52:54;15.16;79.90
51305;HTU21D;37392;50.964;6.952;2023-07-13T01:55:20;15.25;80.16
51305;HTU21D;37392;50.964;6.952;2023-07-13T01:57:47;15.21;79.97
51305;HTU21D;37392;50.964;6.952;2023-07-13T02:00:13;15.22;79.99
51305;HTU21D;37392;50.964;6.952;2023-07-13T02:02:39;15.26;80.22
51305;HTU21D;37392;50.964;6.952;2023-07-13T02:05:05;15.26;80.30
51305;HTU21D;37392;50.964;6.952;2023-07-13T02:07:31;15.30;80.21
51305;HTU21D;37392;50.964;6.952;2023-07-13T02:09:57;15.27;80.41
51305;HTU21D;37392;50.964;6.952;2023-07-13T02:12:23;15.25;80.30
51305;HTU21D;37392;50.964;6.952;2023-07-13T02:14:48;15.16;80.56
51305;HTU21D;37392;50.964;6.952;2023-07-13T02:17:14;15.11;80.49
51305;HTU21D;37392;50.964;6.952;2023-07-13T02:19:40;15.11;80.85
51305;HTU21D;37392;50.964;6.952;2023-07-13T02:22:06;15.10;80.89
51305;HTU21D;37392;50.964;6.952;2023-07-13T02:24:31;15.06;81.06
51305;HTU21D;37392;50.964;6.952;2023-07-13T02:26:57;15.04;81.32
51305;HTU21D;37392;50.964;6.952;2023-07-13T02:29:23;15.07;81.29
51305;HTU21D;37392;50.964;6.952;2023-07-13T02:31:48;15.01;81.17
51305;HTU21D;37392;50.964;6.952;2023-07-13T02:34:14;14.98;81.66
51305;HTU21D;37392;50.964;6.952;2023-07-13T02:36:39;14.92;81.70
51305;HTU21D;37392;50.964;6.952;2023-07-13T02:39:06;14.88;82.25
51305;HTU21D;37392;50.964;6.952;2023-07-13T02:41:32;14.86;82.46
51305;HTU21D;37392;50.964;6.952;2023-07-13T02:43:58;14.86;82.15
51305;HTU21D;37392;50.964;6.952;2023-07-13T02:46:33;14.88;82.20
51305;HTU21D;37392;50.964;6.952;2023-07-13T02:48:59;14.84;82.28
51305;HTU21D;37392;50.964;6.952;2023-07-13T02:51:25;14.81;82.10
51305;HTU21D;37392;50.964;6.952;2023-07-13T02:53:51;14.79;82.27
51305;HTU21D;37392;50.964;6.952;2023-07-13T02:56:16;14.77;82.24
51305;HTU21D;37392;50.964;6.952;2023-07-13T02:58:44;14.77;82.19
51305;HTU21D;37392;50.964;6.952;2023-07-13T03:01:10;14.79;82.21
51305;HTU21D;37392;50.964;6.952;2023-07-13T03:03:37;14.70;82.17
51305;HTU21D;37392;50.964;6.952;2023-07-13T03:06:03;14.64;82.35
51305;HTU21D;37392;50.964;6.952;2023-07-13T03:08:31;14.63;82.35
51305;HTU21D;37392;50.964;6.952;2023-07-13T03:11:01;14.63;82.51
51305;HTU21D;37392;50.964;6.952;2023-07-13T03:13:31;14.66;82.61
51305;HTU21D;37392;50.964;6.952;2023-07-13T03:15:57;14.77;82.76
51305;HTU21D;37392;50.964;6.952;2023-07-13T03:18:22;14.82;82.20
51305;HTU21D;37392;50.964;6.952;2023-07-13T03:20:51;14.86;82.25
51305;HTU21D;37392;50.964;6.952;2023-07-13T03:23:18;14.85;81.68
51305;HTU21D;37392;50.964;6.952;2023-07-13T03:25:44;14.98;81.78
51305;HTU21D;37392;50.964;6.952;2023-07-13T03:28:11;15.01;81.41
51305;HTU21D;37392;50.964;6.952;2023-07-13T03:30:37;14.98;81.49
51305;HTU21D;37392;50.964;6.952;2023-07-13T03:33:03;14.96;81.34
51305;HTU21D;37392;50.964;6.952;2023-07-13T03:35:28;14.95;81.47
51305;HTU21D;37392;50.964;6.952;2023-07-13T03:37:54;14.96;81.40
51305;HTU21D;37392;50.964;6.952;2023-07-13T03:40:19;15.01;81.63
51305;HTU21D;37392;50.964;6.952;2023-07-13T03:42:46;15.00;81.50
51305;HTU21D;37392;50.964;6.952;2023-07-13T03:45:12;15.02;81.25
51305;HTU21D;37392;50.964;6.952;2023-07-13T03:47:37;15.04;81.33
51305;HTU21D;37392;50.964;6.952;2023-07-13T03:50:03;15.08;81.36
51305;HTU21D;37392;50.964;6.952;2023-07-13T03:52:29;15.08;81.29
51305;HTU21D;37392;50.964;6.952;2023-07-13T03:54:55;15.13;81.17
51305;HTU21D;37392;50.964;6.952;2023-07-13T03:57:20;15.18;81.21
51305;HTU21D;37392;50.964;6.952;2023-07-13T03:59:46;15.24;80.99
51305;HTU21D;37392;50.964;6.952;2023-07-13T04:02:11;15.32;80.81
51305;HTU21D;37392;50.964;6.952;2023-07-13T04:04:37;15.41;80.50
51305;HTU21D;37392;50.964;6.952;2023-07-13T04:07:06;15.45;80.46
51305;HTU21D;37392;50.964;6.952;2023-07-13T04:09:33;15.49;80.43
51305;HTU21D;37392;50.964;6.952;2023-07-13T04:11:59;15.59;80.17
51305;HTU21D;37392;50.964;6.952;2023-07-13T04:14:25;15.74;79.94
51305;HTU21D;37392;50.964;6.952;2023-07-13T04:16:50;15.83;79.75
51305;HTU21D;37392;50.964;6.952;2023-07-13T04:19:16;16.08;79.20
51305;HTU21D;37392;50.964;6.952;2023-07-13T04:21:42;16.35;78.29
51305;HTU21D;37392;50.964;6.952;2023-07-13T04:24:08;16.60;77.51
51305;HTU21D;37392;50.964;6.952;2023-07-13T04:26:34;17.18;76.45
51305;HTU21D;37392;50.964;6.952;2023-07-13T04:29:03;18.19;74.14
51305;HTU21D;37392;50.964;6.952;2023-07-13T04:31:30;19.15;70.18
51305;HTU21D;37392;50.964;6.952;2023-07-13T04:33:56;20.05;67.72
51305;HTU21D;37392;50.964;6.952;2023-07-13T04:36:22;20.87;65.31
51305;HTU21D;37392;50.964;6.952;2023-07-13T04:38:48;21.48;62.82
51305;HTU21D;37392;50.964;6.952;2023-07-13T04:41:14;21.69;61.52
51305;HTU21D;37392;50.964;6.952;2023-07-13T04:43:40;22.25;60.35
51305;HTU21D;37392;50.964;6.952;2023-07-13T04:46:08;23.06;58.80
51305;HTU21D;37392;50.964;6.952;2023-07-13T04:48:37;23.39;57.33
51305;HTU21D;37392;50.964;6.952;2023-07-13T04:51:03;23.65;56.60
51305;HTU21D;37392;50.964;6.952;2023-07-13T04:53:30;24.17;55.49
51305;HTU21D;37392;50.964;6.952;2023-07-13T04:55:56;24.62;54.28
51305;HTU21D;37392;50.964;6.952;2023-07-13T04:58:24;24.98;53.28
51305;HTU21D;37392;50.964;6.952;2023-07-13T05:00:51;25.16;52.46
51305;HTU21D;37392;50.964;6.952;2023-07-13T05:03:16;25.59;52.26
51305;HTU21D;37392;50.964;6.952;2023-07-13T05:05:42;26.05;51.14
51305;HTU21D;37392;50.964;6.952;2023-07-13T05:08:07;26.30;50.24
51305;HTU21D;37392;50.964;6.952;2023-07-13T05:10:33;26.49;49.66
51305;HTU21D;37392;50.964;6.952;2023-07-13T05:13:00;27.17;49.38
51305;HTU21D;37392;50.964;6.952;2023-07-13T05:15:26;27.43;48.23
51305;HTU21D;37392;50.964;6.952;2023-07-13T05:17:52;27.58;47.87
51305;HTU21D;37392;50.964;6.952;2023-07-13T05:20:18;27.67;47.46
51305;HTU21D;37392;50.964;6.952;2023-07-13T05:22:44;27.93;47.02
51305;HTU21D;37392;50.964;6.952;2023-07-13T05:25:12;28.18;46.67
51305;HTU21D;37392;50.964;6.952;2023-07-13T05:27:39;28.57;45.73
51305;HTU21D;37392;50.964;6.952;2023-07-13T05:30:05;29.11;45.03
51305;HTU21D;37392;50.964;6.952;2023-07-13T05:32:33;28.64;45.38
51305;HTU21D;37392;50.964;6.952;2023-07-13T05:34:58;28.71;45.54
51305;HTU21D;37392;50.964;6.952;2023-07-13T05:37:24;28.85;45.26
51305;HTU21D;37392;50.964;6.952;2023-07-13T05:39:49;29.50;44.35
51305;HTU21D;37392;50.964;6.952;2023-07-13T05:42:15;30.02;43.48
51305;HTU21D;37392;50.964;6.952;2023-07-13T05:44:40;30.62;42.32
51305;HTU21D;37392;50.964;6.952;2023-07-13T05:47:06;30.71;41.87
51305;HTU21D;37392;50.964;6.952;2023-07-13T05:49:31;31.19;41.39
51305;HTU21D;37392;50.964;6.952;2023-07-13T05:51:57;31.38;40.81
51305;HTU21D;37392;50.964;6.952;2023-07-13T05:54:23;30.95;41.40
51305;HTU21D;37392;50.964;6.952;2023-07-13T05:56:48;30.11;42.65
51305;HTU21D;37392;50.964;6.952;2023-07-13T05:59:14;29.59;43.63
51305;HTU21D;37392;50.964;6.952;2023-07-13T06:01:41;28.79;45.08
51305;HTU21D;37392;50.964;6.952;2023-07-13T06:04:06;28.48;45.93
51305;HTU21D;37392;50.964;6.952;2023-07-13T06:06:49;28.82;45.83
51305;HTU21D;37392;50.964;6.952;2023-07-13T06:09:17;28.72;45.70
51305;HTU21D;37392;50.964;6.952;2023-07-13T06:11:43;28.86;45.91
51305;HTU21D;37392;50.964;6.952;2023-07-13T06:14:09;28.60;46.06
51305;HTU21D;37392;50.964;6.952;2023-07-13T06:16:34;28.09;47.08
51305;HTU21D;37392;50.964;6.952;2023-07-13T06:19:00;28.29;47.29
51305;HTU21D;37392;50.964;6.952;2023-07-13T06:21:26;28.88;46.31
51305;HTU21D;37392;50.964;6.952;2023-07-13T06:23:52;29.72;45.07
51305;HTU21D;37392;50.964;6.952;2023-07-13T06:26:19;30.27;43.64
51305;HTU21D;37392;50.964;6.952;2023-07-13T06:28:47;30.38;43.51
51305;HTU21D;37392;50.964;6.952;2023-07-13T06:31:14;30.56;43.12
51305;HTU21D;37392;50.964;6.952;2023-07-13T06:33:40;30.76;42.77
51305;HTU21D;37392;50.964;6.952;2023-07-13T06:36:07;31.25;42.32
51305;HTU21D;37392;50.964;6.952;2023-07-13T06:38:33;31.79;40.93
51305;HTU21D;37392;50.964;6.952;2023-07-13T06:40:59;31.71;40.78
51305;HTU21D;37392;50.964;6.952;2023-07-13T06:43:24;31.71;41.13
51305;HTU21D;37392;50.964;6.952;2023-07-13T06:45:51;31.92;40.79
51305;HTU21D;37392;50.964;6.952;2023-07-13T06:48:19;32.04;40.62
51305;HTU21D;37392;50.964;6.952;2023-07-13T06:50:45;32.99;39.34
51305;HTU21D;37392;50.964;6.952;2023-07-13T06:53:12;33.40;38.47
51305;HTU21D;37392;50.964;6.952;2023-07-13T06:55:38;33.45;38.26
51305;HTU21D;37392;50.964;6.952;2023-07-13T06:58:04;32.88;38.82
51305;HTU21D;37392;50.964;6.952;2023-07-13T07:00:30;32.39;39.59
51305;HTU21D;37392;50.964;6.952;2023-07-13T07:02:56;31.94;40.52
51305;HTU21D;37392;50.964;6.952;2023-07-13T07:05:22;32.00;40.68
51305;HTU21D;37392;50.964;6.952;2023-07-13T07:07:49;32.67;39.78
51305;HTU21D;37392;50.964;6.952;2023-07-13T07:10:15;33.41;39.04
51305;HTU21D;37392;50.964;6.952;2023-07-13T07:12:41;34.54;36.99
51305;HTU21D;37392;50.964;6.952;2023-07-13T07:15:06;35.58;35.61
51305;HTU21D;37392;50.964;6.952;2023-07-13T07:17:32;36.64;34.18
51305;HTU21D;37392;50.964;6.952;2023-07-13T07:19:58;36.74;33.73
51305;HTU21D;37392;50.964;6.952;2023-07-13T07:22:23;36.96;33.08
51305;HTU21D;37392;50.964;6.952;2023-07-13T07:24:52;36.62;33.42
51305;HTU21D;37392;50.964;6.952;2023-07-13T07:27:18;36.17;33.86
51305;HTU21D;37392;50.964;6.952;2023-07-13T07:29:44;35.57;34.70
51305;HTU21D;37392;50.964;6.952;2023-07-13T07:32:10;35.36;35.22
51305;HTU21D;37392;50.964;6.952;2023-07-13T07:34:35;35.69;34.96
51305;HTU21D;37392;50.964;6.952;2023-07-13T07:37:01;35.81;34.38
51305;HTU21D;37392;50.964;6.952;2023-07-13T07:39:27;35.74;34.25
51305;HTU21D;37392;50.964;6.952;2023-07-13T07:41:54;35.07;35.10
51305;HTU21D;37392;50.964;6.952;2023-07-13T07:44:21;34.40;36.36
51305;HTU21D;37392;50.964;6.952;2023-07-13T07:46:47;33.56;37.44
51305;HTU21D;37392;50.964;6.952;2023-07-13T07:49:13;32.85;38.54
51305;HTU21D;37392;50.964;6.952;2023-07-13T07:51:38;32.49;39.34
51305;HTU21D;37392;50.964;6.952;2023-07-13T07:54:05;32.20;39.60
51305;HTU21D;37392;50.964;6.952;2023-07-13T07:56:31;31.92;40.28
51305;HTU21D;37392;50.964;6.952;2023-07-13T07:58:57;31.70;40.68
51305;HTU21D;37392;50.964;6.952;2023-07-13T08:01:23;31.85;40.66
51305;HTU21D;37392;50.964;6.952;2023-07-13T08:03:49;31.97;40.69
51305;HTU21D;37392;50.964;6.952;2023-07-13T08:06:15;32.13;40.49
51305;HTU21D;37392;50.964;6.952;2023-07-13T08:08:40;32.25;40.42
51305;HTU21D;37392;50.964;6.952;2023-07-13T08:11:07;32.16;40.55
51305;HTU21D;37392;50.964;6.952;2023-07-13T08:13:33;31.94;40.74
51305;HTU21D;37392;50.964;6.952;2023-07-13T08:15:59;31.97;40.72
51305;HTU21D;37392;50.964;6.952;2023-07-13T08:18:25;31.86;41.04
51305;HTU21D;37392;50.964;6.952;2023-07-13T08:20:53;31.95;40.97
51305;HTU21D;37392;50.964;6.952;2023-07-13T08:23:21;32.34;40.62
51305;HTU21D;37392;50.964;6.952;2023-07-13T08:25:54;32.16;40.41
51305;HTU21D;37392;50.964;6.952;2023-07-13T08:28:23;32.25;40.31
51305;HTU21D;37392;50.964;6.952;2023-07-13T08:30:49;32.31;40.49
51305;HTU21D;37392;50.964;6.952;2023-07-13T08:33:19;32.34;40.32
51305;HTU21D;37392;50.964;6.952;2023-07-13T08:35:46;32.09;40.68
51305;HTU21D;37392;50.964;6.952;2023-07-13T08:38:14;32.31;40.17
51305;HTU21D;37392;50.964;6.952;2023-07-13T08:40:40;32.32;40.02
51305;HTU21D;37392;50.964;6.952;2023-07-13T08:43:18;32.18;40.53
51305;HTU21D;37392;50.964;6.952;2023-07-13T08:45:48;32.57;39.59
51305;HTU21D;37392;50.964;6.952;2023-07-13T08:48:28;32.28;40.01
51305;HTU21D;37392;50.964;6.952;2023-07-13T08:51:02;32.19;40.12
51305;HTU21D;37392;50.964;6.952;2023-07-13T08:53:48;32.49;39.56
51305;HTU21D;37392;50.964;6.952;2023-07-13T08:56:19;32.78;39.08
51305;HTU21D;37392;50.964;6.952;2023-07-13T08:58:51;32.69;38.90
51305;HTU21D;37392;50.964;6.952;2023-07-13T09:01:53;32.23;39.69
51305;HTU21D;37392;50.964;6.952;2023-07-13T09:04:39;31.93;40.23
51305;HTU21D;37392;50.964;6.952;2023-07-13T09:07:14;31.63;40.91
51305;HTU21D;37392;50.964;6.952;2023-07-13T09:15:27;30.93;42.04
51305;HTU21D;37392;50.964;6.952;2023-07-13T09:18:13;30.85;42.43
51305;HTU21D;37392;50.964;6.952;2023-07-13T09:20:45;30.95;42.26
51305;HTU21D;37392;50.964;6.952;2023-07-13T09:23:21;31.14;41.65
51305;HTU21D;37392;50.964;6.952;2023-07-13T09:25:53;31.61;41.01
51305;HTU21D;37392;50.964;6.952;2023-07-13T09:28:28;32.57;39.72
51305;HTU21D;37392;50.964;6.952;2023-07-13T09:33:30;34.92;36.14
51305;HTU21D;37392;50.964;6.952;2023-07-13T09:35:59;35.81;34.91
51305;HTU21D;37392;50.964;6.952;2023-07-13T09:38:29;36.42;33.93
51305;HTU21D;37392;50.964;6.952;2023-07-13T09:43:36;36.92;32.51
51305;HTU21D;37392;50.964;6.952;2023-07-13T09:46:02;36.99;32.41
51305;HTU21D;37392;50.964;6.952;2023-07-13T09:48:35;37.02;32.67
51305;HTU21D;37392;50.964;6.952;2023-07-13T09:51:12;37.73;31.77
51305;HTU21D;37392;50.964;6.952;2023-07-13T09:53:41;37.82;31.59
51305;HTU21D;37392;50.964;6.952;2023-07-13T09:56:20;38.04;31.28
51305;HTU21D;37392;50.964;6.952;2023-07-13T09:58:51;38.47;30.71
51305;HTU21D;37392;50.964;6.952;2023-07-13T10:01:31;38.23;30.93
51305;HTU21D;37392;50.964;6.952;2023-07-13T10:03:58;38.17;30.99
51305;HTU21D;37392;50.964;6.952;2023-07-13T10:06:24;37.48;31.57
51305;HTU21D;37392;50.964;6.952;2023-07-13T10:08:52;37.28;32.21
51305;HTU21D;37392;50.964;6.952;2023-07-13T10:11:21;36.99;32.28
51305;HTU21D;37392;50.964;6.952;2023-07-13T10:14:00;36.74;32.76
51305;HTU21D;37392;50.964;6.952;2023-07-13T10:16:34;36.70;32.83
51305;HTU21D;37392;50.964;6.952;2023-07-13T10:19:05;37.43;32.12
51305;HTU21D;37392;50.964;6.952;2023-07-13T10:21:39;37.46;31.50
51305;HTU21D;37392;50.964;6.952;2023-07-13T10:24:24;36.87;31.82
51305;HTU21D;37392;50.964;6.952;2023-07-13T10:27:02;36.59;32.04
51305;HTU21D;37392;50.964;6.952;2023-07-13T10:29:37;35.63;33.24
51305;HTU21D;37392;50.964;6.952;2023-07-13T10:32:11;34.94;34.33
51305;HTU21D;37392;50.964;6.952;2023-07-13T10:34:39;34.78;34.45
51305;HTU21D;37392;50.964;6.952;2023-07-13T10:37:07;34.26;35.18
51305;HTU21D;37392;50.964;6.952;2023-07-13T10:39:46;33.94;35.67
51305;HTU21D;37392;50.964;6.952;2023-07-13T10:42:15;34.12;35.79
51305;HTU21D;37392;50.964;6.952;2023-07-13T10:44:50;35.05;34.65
51305;HTU21D;37392;50.964;6.952;2023-07-13T10:47:16;35.28;34.02
51305;HTU21D;37392;50.964;6.952;2023-07-13T10:49:43;35.21;33.77
51305;HTU21D;37392;50.964;6.952;2023-07-13T10:58:12;35.35;33.42
51305;HTU21D;37392;50.964;6.952;2023-07-13T11:01:02;34.77;34.14
51305;HTU21D;37392;50.964;6.952;2023-07-13T11:03:55;33.92;35.06
51305;HTU21D;37392;50.964;6.952;2023-07-13T11:09:17;32.97;36.85
51305;HTU21D;37392;50.964;6.952;2023-07-13T11:15:06;31.83;38.73
51305;HTU21D;37392;50.964;6.952;2023-07-13T11:23:09;30.53;41.76
51305;HTU21D;37392;50.964;6.952;2023-07-13T11:25:37;30.35;42.09
51305;HTU21D;37392;50.964;6.952;2023-07-13T11:30:49;30.62;41.81
51305;HTU21D;37392;50.964;6.952;2023-07-13T11:33:45;31.05;41.24
51305;HTU21D;37392;50.964;6.952;2023-07-13T11:36:19;31.37;40.45
51305;HTU21D;37392;50.964;6.952;2023-07-13T11:39:11;31.38;39.99
51305;HTU21D;37392;50.964;6.952;2023-07-13T11:41:50;31.22;40.05
51305;HTU21D;37392;50.964;6.952;2023-07-13T11:44:20;30.99;40.40
51305;HTU21D;37392;50.964;6.952;2023-07-13T11:46:57;30.72;41.04
51305;HTU21D;37392;50.964;6.952;2023-07-13T11:49:31;30.45;41.37
51305;HTU21D;37392;50.964;6.952;2023-07-13T11:51:57;30.16;41.96
51305;HTU21D;37392;50.964;6.952;2023-07-13T11:54:41;30.04;41.99
51305;HTU21D;37392;50.964;6.952;2023-07-13T11:57:28;30.01;41.87
51305;HTU21D;37392;50.964;6.952;2023-07-13T11:59:57;29.88;41.49
51305;HTU21D;37392;50.964;6.952;2023-07-13T12:02:31;30.23;40.81
51305;HTU21D;37392;50.964;6.952;2023-07-13T12:04:59;30.40;40.50
51305;HTU21D;37392;50.964;6.952;2023-07-13T12:07:29;30.27;40.79
51305;HTU21D;37392;50.964;6.952;2023-07-13T12:10:17;30.34;40.75
51305;HTU21D;37392;50.964;6.952;2023-07-13T12:13:00;30.38;41.03
51305;HTU21D;37392;50.964;6.952;2023-07-13T12:15:43;30.12;41.23
51305;HTU21D;37392;50.964;6.952;2023-07-13T12:18:18;30.00;41.34
51305;HTU21D;37392;50.964;6.952;2023-07-13T12:20:47;29.76;42.19
51305;HTU21D;37392;50.964;6.952;2023-07-13T12:23:31;29.76;42.20
51305;HTU21D;37392;50.964;6.952;2023-07-13T12:25:59;29.60;42.14
51305;HTU21D;37392;50.964;6.952;2023-07-13T12:31:05;29.23;41.42
51305;HTU21D;37392;50.964;6.952;2023-07-13T12:33:33;29.24;41.54
51305;HTU21D;37392;50.964;6.952;2023-07-13T12:36:04;29.29;41.77
51305;HTU21D;37392;50.964;6.952;2023-07-13T12:38:31;29.36;41.29
51305;HTU21D;37392;50.964;6.952;2023-07-13T12:40:58;29.46;41.71
51305;HTU21D;37392;50.964;6.952;2023-07-13T12:43:25;29.74;41.26
51305;HTU21D;37392;50.964;6.952;2023-07-13T12:46:02;29.66;41.46
51305;HTU21D;37392;50.964;6.952;2023-07-13T12:48:29;29.57;41.57
51305;HTU21D;37392;50.964;6.952;2023-07-13T12:50:55;29.37;42.19
51305;HTU21D;37392;50.964;6.952;2023-07-13T12:53:27;29.41;42.62
51305;HTU21D;37392;50.964;6.952;2023-07-13T12:55:59;29.66;42.10
51305;HTU21D;37392;50.964;6.952;2023-07-13T12:58:28;29.86;41.20
51305;HTU21D;37392;50.964;6.952;2023-07-13T13:01:02;29.89;41.11
51305;HTU21D;37392;50.964;6.952;2023-07-13T13:03:39;29.96;40.35
51305;HTU21D;37392;50.964;6.952;2023-07-13T13:08:56;29.74;41.16
51305;HTU21D;37392;50.964;6.952;2023-07-13T13:11:28;29.61;41.23
51305;HTU21D;37392;50.964;6.952;2023-07-13T13:13:55;29.54;41.45
51305;HTU21D;37392;50.964;6.952;2023-07-13T13:16:31;29.42;41.58
51305;HTU21D;37392;50.964;6.952;2023-07-13T13:19:17;29.41;41.16
51305;HTU21D;37392;50.964;6.952;2023-07-13T13:21:47;29.33;41.06
51305;HTU21D;37392;50.964;6.952;2023-07-13T13:24:18;29.33;40.53
51305;HTU21D;37392;50.964;6.952;2023-07-13T13:26:45;29.34;40.81
51305;HTU21D;37392;50.964;6.952;2023-07-13T13:29:15;29.22;41.35
51305;HTU21D;37392;50.964;6.952;2023-07-13T13:31:42;29.17;40.39
51305;HTU21D;37392;50.964;6.952;2023-07-13T13:34:14;28.95;40.16
51305;HTU21D;37392;50.964;6.952;2023-07-13T13:36:42;28.84;40.42
51305;HTU21D;37392;50.964;6.952;2023-07-13T13:39:35;28.99;41.10
51305;HTU21D;37392;50.964;6.952;2023-07-13T13:42:02;28.99;41.52
51305;HTU21D;37392;50.964;6.952;2023-07-13T13:44:27;28.90;41.60
51305;HTU21D;37392;50.964;6.952;2023-07-13T13:46:55;28.85;41.68
51305;HTU21D;37392;50.964;6.952;2023-07-13T13:49:23;28.82;41.91
51305;HTU21D;37392;50.964;6.952;2023-07-13T13:51:52;28.99;41.68
51305;HTU21D;37392;50.964;6.952;2023-07-13T13:54:19;29.26;41.52
51305;HTU21D;37392;50.964;6.952;2023-07-13T13:56:48;29.47;41.39
51305;HTU21D;37392;50.964;6.952;2023-07-13T13:59:15;29.30;41.05
51305;HTU21D;37392;50.964;6.952;2023-07-13T14:01:45;28.85;41.78
51305;HTU21D;37392;50.964;6.952;2023-07-13T14:04:19;28.71;42.00
51305;HTU21D;37392;50.964;6.952;2023-07-13T14:06:45;28.80;41.90
51305;HTU21D;37392;50.964;6.952;2023-07-13T14:09:14;28.72;41.77
51305;HTU21D;37392;50.964;6.952;2023-07-13T14:11:41;28.76;41.74
51305;HTU21D;37392;50.964;6.952;2023-07-13T14:14:20;28.72;41.93
51305;HTU21D;37392;50.964;6.952;2023-07-13T14:16:49;28.68;42.02
51305;HTU21D;37392;50.964;6.952;2023-07-13T14:19:20;28.73;42.10
51305;HTU21D;37392;50.964;6.952;2023-07-13T14:21:46;28.71;41.84
51305;HTU21D;37392;50.964;6.952;2023-07-13T14:24:12;28.56;42.39
51305;HTU21D;37392;50.964;6.952;2023-07-13T14:26:40;28.54;42.59
51305;HTU21D;37392;50.964;6.952;2023-07-13T14:29:18;28.45;42.76
51305;HTU21D;37392;50.964;6.952;2023-07-13T14:31:45;28.45;42.76
51305;HTU21D;37392;50.964;6.952;2023-07-13T14:34:12;28.48;42.86
51305;HTU21D;37392;50.964;6.952;2023-07-13T14:36:44;28.54;42.57
51305;HTU21D;37392;50.964;6.952;2023-07-13T14:39:16;28.63;42.33
51305;HTU21D;37392;50.964;6.952;2023-07-13T14:41:44;28.62;42.38
51305;HTU21D;37392;50.964;6.952;2023-07-13T14:44:14;28.71;42.45
51305;HTU21D;37392;50.964;6.952;2023-07-13T14:46:41;28.91;42.10
51305;HTU21D;37392;50.964;6.952;2023-07-13T14:49:33;28.95;42.10
51305;HTU21D;37392;50.964;6.952;2023-07-13T14:52:05;29.12;41.52
51305;HTU21D;37392;50.964;6.952;2023-07-13T14:54:53;29.35;41.40
51305;HTU21D;37392;50.964;6.952;2023-07-13T14:57:19;29.31;41.24
51305;HTU21D;37392;50.964;6.952;2023-07-13T14:59:46;29.20;41.54
51305;HTU21D;37392;50.964;6.952;2023-07-13T15:02:33;29.23;41.61
51305;HTU21D;37392;50.964;6.952;2023-07-13T15:04:59;29.20;41.66
51305;HTU21D;37392;50.964;6.952;2023-07-13T15:07:25;29.28;41.60
51305;HTU21D;37392;50.964;6.952;2023-07-13T15:09:51;29.45;41.52
51305;HTU21D;37392;50.964;6.952;2023-07-13T15:12:18;29.31;41.33
51305;HTU21D;37392;50.964;6.952;2023-07-13T15:14:43;29.03;40.54
51305;HTU21D;37392;50.964;6.952;2023-07-13T15:17:31;28.97;40.35
51305;HTU21D;37392;50.964;6.952;2023-07-13T15:20:32;28.87;40.49
51305;HTU21D;37392;50.964;6.952;2023-07-13T15:24:10;28.62;41.32
51305;HTU21D;37392;50.964;6.952;2023-07-13T15:27:11;28.54;41.78
51305;HTU21D;37392;50.964;6.952;2023-07-13T15:29:37;28.40;42.54
51305;HTU21D;37392;50.964;6.952;2023-07-13T15:32:03;28.34;42.81
51305;HTU21D;37392;50.964;6.952;2023-07-13T15:34:47;28.18;43.13
51305;HTU21D;37392;50.964;6.952;2023-07-13T15:37:43;27.87;43.65
51305;HTU21D;37392;50.964;6.952;2023-07-13T15:41:16;27.73;44.10
51305;HTU21D;37392;50.964;6.952;2023-07-13T15:43:43;27.67;44.22
51305;HTU21D;37392;50.964;6.952;2023-07-13T15:46:09;27.63;44.43
51305;HTU21D;37392;50.964;6.952;2023-07-13T15:48:35;27.58;44.67
51305;HTU21D;37392;50.964;6.952;2023-07-13T15:51:04;27.52;44.85
51305;HTU21D;37392;50.964;6.952;2023-07-13T15:53:32;27.36;44.80
51305;HTU21D;37392;50.964;6.952;2023-07-13T15:55:59;27.23;45.50
51305;HTU21D;37392;50.964;6.952;2023-07-13T15:58:27;27.09;46.10
51305;HTU21D;37392;50.964;6.952;2023-07-13T16:00:53;27.07;46.12
51305;HTU21D;37392;50.964;6.952;2023-07-13T16:03:20;26.79;47.22
51305;HTU21D;37392;50.964;6.952;2023-07-13T16:05:46;26.43;49.38
51305;HTU21D;37392;50.964;6.952;2023-07-13T16:08:27;26.16;51.10
51305;HTU21D;37392;50.964;6.952;2023-07-13T16:10:53;25.92;52.36